createdAt,value
2022-11-04T00:07:31.709Z,22.08
2022-11-04T00:17:33.297Z,21.98
2022-11-04T00:27:55.746Z,23.23
2022-11-04T00:37:57.478Z,22.00
2022-11-04T00:48:00.116Z,23.45
2022-11-04T00:58:01.997Z,23.70
2022-11-04T01:08:03.877Z,24.50
2022-11-04T01:18:06.290Z,25.58
2022-11-04T01:28:08.465Z,25.33
2022-11-04T01:38:11.311Z,27.63
2022-11-04T01:48:22.243Z,27.85
2022-11-04T01:58:28.947Z,26.70
2022-11-04T02:08:31.991Z,27.20
2022-11-04T02:18:44.668Z,27.77
2022-11-04T02:29:05.208Z,27.60
2022-11-04T02:39:23.063Z,28.38
2022-11-04T02:49:33.425Z,28.00
2022-11-04T02:59:56.595Z,27.58
2022-11-04T03:10:04.800Z,29.87
2022-11-04T03:20:12.319Z,28.55
2022-11-04T03:30:19.960Z,29.70
2022-11-04T03:40:22.783Z,28.63
2022-11-04T03:50:28.927Z,29.30
2022-11-04T04:00:39.192Z,29.10
2022-11-04T04:11:03.133Z,28.27
2022-11-04T04:21:09.538Z,28.40
2022-11-04T04:31:34.666Z,31.95
2022-11-04T04:41:54.914Z,34.70
2022-11-04T04:51:57.822Z,33.85
2022-11-04T05:01:59.747Z,29.53
2022-11-04T05:12:01.618Z,31.15
2022-11-04T05:22:04.722Z,29.70
2022-11-04T05:32:06.820Z,30.75
2022-11-04T05:42:11.784Z,30.83
2022-11-04T05:52:13.568Z,30.85
2022-11-04T06:02:20.535Z,35.53
2022-11-04T06:12:23.512Z,34.03
2022-11-04T06:22:25.232Z,33.40
2022-11-04T06:32:26.924Z,33.88
2022-11-04T06:42:28.967Z,34.85
2022-11-04T06:52:42.105Z,32.17
2022-11-04T07:02:49.290Z,32.63
2022-11-04T07:12:50.958Z,30.80
2022-11-04T07:22:55.584Z,32.55
2022-11-04T07:32:57.346Z,30.35
2022-11-04T07:43:01.314Z,30.45
2022-11-04T07:53:03.042Z,29.63
2022-11-04T08:03:04.771Z,30.80
2022-11-04T08:13:07.991Z,30.13
2022-11-04T08:33:15.557Z,31.23
2022-11-04T08:43:17.388Z,31.37
2022-11-04T08:53:19.530Z,31.00
2022-11-04T09:03:23.228Z,30.92
2022-11-04T09:13:25.006Z,33.35
2022-11-04T09:23:31.258Z,33.15
2022-11-04T09:33:33.424Z,35.38
2022-11-04T09:44:13.979Z,38.28
2022-11-04T09:54:47.303Z,36.15
2022-11-04T10:05:05.280Z,37.47
2022-11-04T10:15:28.222Z,39.50
2022-11-04T10:25:47.203Z,41.10
2022-11-04T10:35:57.692Z,41.65
2022-11-04T10:46:28.999Z,41.10
2022-11-04T10:56:34.156Z,43.28
2022-11-04T11:06:38.664Z,44.28
2022-11-04T11:16:45.743Z,44.28
2022-11-04T11:26:52.343Z,49.88
2022-11-04T11:36:57.902Z,44.13
2022-11-04T11:47:03.108Z,45.47
2022-11-04T11:57:25.655Z,44.85
2022-11-04T12:18:30.909Z,45.03
2022-11-04T12:28:57.159Z,46.05
2022-11-04T12:39:35.083Z,41.50
2022-11-04T12:49:49.191Z,42.05
2022-11-04T13:00:10.644Z,39.47
2022-11-04T13:10:28.937Z,35.63
2022-11-04T13:20:50.594Z,37.53
2022-11-04T13:31:08.075Z,38.85
2022-11-04T13:41:47.491Z,35.92
2022-11-04T13:52:01.102Z,31.77
2022-11-04T14:02:12.814Z,31.50
2022-11-04T14:12:30.310Z,32.50
2022-11-04T14:22:39.110Z,31.50
2022-11-04T14:32:41.950Z,31.67
2022-11-04T14:42:51.850Z,34.05
2022-11-04T14:53:00.882Z,34.33
2022-11-04T15:03:57.497Z,35.67
2022-11-04T15:13:50.079Z,34.42
2022-11-04T15:23:57.673Z,34.22
2022-11-04T15:34:02.272Z,34.10
2022-11-04T15:44:04.410Z,34.03
2022-11-04T15:54:30.635Z,36.63
2022-11-04T16:04:35.520Z,37.47
2022-11-04T16:14:38.274Z,38.10
2022-11-04T16:24:41.687Z,45.72
2022-11-04T16:34:50.779Z,44.78
2022-11-04T16:45:02.630Z,44.33
2022-11-04T16:55:05.596Z,44.67
2022-11-04T17:05:08.815Z,46.10
2022-11-04T17:15:12.948Z,43.58
2022-11-04T17:25:23.949Z,46.95
2022-11-04T17:35:27.654Z,46.47
2022-11-04T17:45:30.734Z,45.50
2022-11-04T17:55:46.793Z,47.00
2022-11-04T18:06:03.038Z,46.30
2022-11-04T18:16:12.897Z,41.78
2022-11-04T18:26:14.615Z,48.40
2022-11-04T18:36:16.760Z,47.20
2022-11-04T18:46:20.006Z,47.83
2022-11-04T18:56:23.405Z,48.92
2022-11-04T19:06:30.998Z,43.63
2022-11-04T19:16:41.883Z,41.45
2022-11-04T19:26:43.995Z,41.35
2022-11-04T19:36:46.063Z,41.67
2022-11-04T19:46:50.884Z,42.97
2022-11-04T19:56:56.297Z,44.85
2022-11-04T20:06:58.296Z,44.72
2022-11-04T20:17:00.363Z,44.55
2022-11-04T20:27:02.367Z,42.28
2022-11-04T20:37:04.164Z,45.50
2022-11-04T20:47:06.995Z,44.65
2022-11-04T20:57:08.664Z,46.97
2022-11-04T21:07:11.076Z,47.20
2022-11-04T21:17:13.508Z,47.67
2022-11-04T21:27:15.159Z,47.97
2022-11-04T21:37:26.026Z,44.70
2022-11-04T21:47:27.992Z,44.88
2022-11-04T21:57:30.733Z,45.08
2022-11-04T22:07:51.011Z,58.53
2022-11-04T22:17:52.780Z,64.85
2022-11-04T22:27:56.754Z,63.13
2022-11-04T22:38:01.854Z,54.13
2022-11-04T22:48:07.007Z,41.22
2022-11-04T22:58:13.743Z,32.05
2022-11-04T23:08:24.892Z,29.80
2022-11-04T23:18:43.520Z,24.88
2022-11-04T23:29:04.820Z,18.38
2022-11-04T23:39:07.537Z,16.08
2022-11-04T23:49:31.008Z,13.60
2022-11-04T23:59:57.071Z,10.45
